sensor_id;sensor_type;location;lat;lon;timestamp;temperature;humidity
51908;DHT22;39320;53.214;6.556;2023-02-15T00:00:13;7.50;99.90
51908;DHT22;39320;53.214;6.556;2023-02-15T00:02:39;7.50;99.90
51908;DHT22;39320;53.214;6.556;2023-02-15T00:05:05;7.40;99.90
51908;DHT22;39320;53.214;6.556;2023-02-15T00:07:31;7.40;99.90
51908;DHT22;39320;53.214;6.556;2023-02-15T00:09:58;7.40;99.90
51908;DHT22;39320;53.214;6.556;2023-02-15T00:12:24;7.40;99.90
51908;DHT22;39320;53.214;6.556;2023-02-15T00:14:50;7.40;99.90
51908;DHT22;39320;53.214;6.556;2023-02-15T00:17:16;7.40;99.90
51908;DHT22;39320;53.214;6.556;2023-02-15T00:19:42;7.30;99.90
51908;DHT22;39320;53.214;6.556;2023-02-15T00:22:08;7.30;99.90
51908;DHT22;39320;53.214;6.556;2023-02-15T00:24:34;7.30;99.90
51908;DHT22;39320;53.214;6.556;2023-02-15T00:27:00;7.40;99.90
51908;DHT22;39320;53.214;6.556;2023-02-15T00:29:25;7.40;99.90
51908;DHT22;39320;53.214;6.556;2023-02-15T00:31:51;7.40;99.90
51908;DHT22;39320;53.214;6.556;2023-02-15T00:34:23;7.40;99.90
51908;DHT22;39320;53.214;6.556;2023-02-15T00:36:50;7.30;99.90
51908;DHT22;39320;53.214;6.556;2023-02-15T00:39:16;7.30;99.90
51908;DHT22;39320;53.214;6.556;2023-02-15T00:41:42;7.30;99.90
51908;DHT22;39320;53.214;6.556;2023-02-15T00:44:09;7.30;99.90
51908;DHT22;39320;53.214;6.556;2023-02-15T00:46:35;7.30;99.90
51908;DHT22;39320;53.214;6.556;2023-02-15T00:49:01;7.30;99.90
51908;DHT22;39320;53.214;6.556;2023-02-15T00:51:27;7.30;99.90
51908;DHT22;39320;53.214;6.556;2023-02-15T00:53:53;7.30;99.90
51908;DHT22;39320;53.214;6.556;2023-02-15T00:56:19;7.30;99.90
51908;DHT22;39320;53.214;6.556;2023-02-15T00:58:45;7.30;99.90
51908;DHT22;39320;53.214;6.556;2023-02-15T01:01:13;7.30;99.90
51908;DHT22;39320;53.214;6.556;2023-02-15T01:03:39;7.30;99.90
51908;DHT22;39320;53.214;6.556;2023-02-15T01:06:07;7.20;99.90
51908;DHT22;39320;53.214;6.556;2023-02-15T01:08:33;7.20;99.90
51908;DHT22;39320;53.214;6.556;2023-02-15T01:11:20;7.20;99.90
51908;DHT22;39320;53.214;6.556;2023-02-15T01:13:54;7.30;99.90
51908;DHT22;39320;53.214;6.556;2023-02-15T01:16:20;7.20;99.90
51908;DHT22;39320;53.214;6.556;2023-02-15T01:18:46;7.20;99.90
51908;DHT22;39320;53.214;6.556;2023-02-15T01:21:14;7.20;99.90
51908;DHT22;39320;53.214;6.556;2023-02-15T01:23:41;7.20;99.90
51908;DHT22;39320;53.214;6.556;2023-02-15T01:26:08;7.70;99.90
51908;DHT22;39320;53.214;6.556;2023-02-15T01:28:34;7.10;99.90
51908;DHT22;39320;53.214;6.556;2023-02-15T01:31:11;7.20;99.90
51908;DHT22;39320;53.214;6.556;2023-02-15T01:33:37;7.10;99.90
51908;DHT22;39320;53.214;6.556;2023-02-15T01:36:04;7.10;99.90
51908;DHT22;39320;53.214;6.556;2023-02-15T01:38:30;7.10;99.90
51908;DHT22;39320;53.214;6.556;2023-02-15T01:40:55;7.10;99.90
51908;DHT22;39320;53.214;6.556;2023-02-15T01:43:50;7.10;99.90
51908;DHT22;39320;53.214;6.556;2023-02-15T01:46:18;7.00;99.90
51908;DHT22;39320;53.214;6.556;2023-02-15T01:48:50;7.00;99.90
51908;DHT22;39320;53.214;6.556;2023-02-15T01:51:21;7.00;99.90
51908;DHT22;39320;53.214;6.556;2023-02-15T01:56:37;6.90;99.90
51908;DHT22;39320;53.214;6.556;2023-02-15T01:59:09;6.90;99.90
51908;DHT22;39320;53.214;6.556;2023-02-15T02:01:37;6.80;99.90
51908;DHT22;39320;53.214;6.556;2023-02-15T02:06:58;6.80;99.90
51908;DHT22;39320;53.214;6.556;2023-02-15T02:09:25;6.70;99.90
51908;DHT22;39320;53.214;6.556;2023-02-15T02:11:51;6.70;99.90
51908;DHT22;39320;53.214;6.556;2023-02-15T02:14:17;6.70;99.90
51908;DHT22;39320;53.214;6.556;2023-02-15T02:16:50;6.60;99.90
51908;DHT22;39320;53.214;6.556;2023-02-15T02:19:49;6.60;99.90
51908;DHT22;39320;53.214;6.556;2023-02-15T02:39:12;6.80;99.90
51908;DHT22;39320;53.214;6.556;2023-02-15T02:42:01;6.40;99.90
51908;DHT22;39320;53.214;6.556;2023-02-15T02:44:34;6.40;99.90
51908;DHT22;39320;53.214;6.556;2023-02-15T02:47:18;6.70;99.90
51908;DHT22;39320;53.214;6.556;2023-02-15T02:49:44;6.40;99.90
51908;DHT22;39320;53.214;6.556;2023-02-15T02:52:40;6.40;99.90
51908;DHT22;39320;53.214;6.556;2023-02-15T03:00:34;6.20;99.90
51908;DHT22;39320;53.214;6.556;2023-02-15T03:03:09;6.30;99.90
51908;DHT22;39320;53.214;6.556;2023-02-15T03:05:39;6.30;99.90
51908;DHT22;39320;53.214;6.556;2023-02-15T03:08:10;6.20;99.90
51908;DHT22;39320;53.214;6.556;2023-02-15T03:10:39;6.20;99.90
51908;DHT22;39320;53.214;6.556;2023-02-15T03:13:06;6.30;99.90
51908;DHT22;39320;53.214;6.556;2023-02-15T03:15:36;6.20;99.90
51908;DHT22;39320;53.214;6.556;2023-02-15T03:18:25;6.10;99.90
51908;DHT22;39320;53.214;6.556;2023-02-15T03:20:55;6.10;99.90
51908;DHT22;39320;53.214;6.556;2023-02-15T03:23:23;6.10;99.90
51908;DHT22;39320;53.214;6.556;2023-02-15T03:25:56;6.10;99.90
51908;DHT22;39320;53.214;6.556;2023-02-15T03:28:52;6.10;99.90
51908;DHT22;39320;53.214;6.556;2023-02-15T03:31:22;6.20;99.90
51908;DHT22;39320;53.214;6.556;2023-02-15T03:34:02;6.10;99.90
51908;DHT22;39320;53.214;6.556;2023-02-15T03:39:25;6.10;99.90
51908;DHT22;39320;53.214;6.556;2023-02-15T03:42:51;6.10;99.90
51908;DHT22;39320;53.214;6.556;2023-02-15T03:45:04;6.00;99.90
51908;DHT22;39320;53.214;6.556;2023-02-15T03:47:37;6.00;99.90
51908;DHT22;39320;53.214;6.556;2023-02-15T03:52:55;6.00;99.90
51908;DHT22;39320;53.214;6.556;2023-02-15T03:55:21;6.00;99.90
51908;DHT22;39320;53.214;6.556;2023-02-15T03:57:47;6.00;99.90
51908;DHT22;39320;53.214;6.556;2023-02-15T04:00:36;6.00;99.90
51908;DHT22;39320;53.214;6.556;2023-02-15T04:03:32;6.00;99.90
51908;DHT22;39320;53.214;6.556;2023-02-15T04:06:00;6.00;99.90
51908;DHT22;39320;53.214;6.556;2023-02-15T04:08:27;6.00;99.90
51908;DHT22;39320;53.214;6.556;2023-02-15T04:11:13;6.00;99.90
51908;DHT22;39320;53.214;6.556;2023-02-15T04:13:38;6.00;99.90
51908;DHT22;39320;53.214;6.556;2023-02-15T04:16:04;6.00;99.90
51908;DHT22;39320;53.214;6.556;2023-02-15T04:21:22;6.00;99.90
51908;DHT22;39320;53.214;6.556;2023-02-15T04:24:06;6.00;99.90
51908;DHT22;39320;53.214;6.556;2023-02-15T04:26:50;6.10;99.90
51908;DHT22;39320;53.214;6.556;2023-02-15T04:29:22;6.00;99.90
51908;DHT22;39320;53.214;6.556;2023-02-15T04:31:49;6.00;99.90
51908;DHT22;39320;53.214;6.556;2023-02-15T04:34:15;6.00;99.90
51908;DHT22;39320;53.214;6.556;2023-02-15T04:36:41;6.00;99.90
51908;DHT22;39320;53.214;6.556;2023-02-15T04:39:08;6.00;99.90
51908;DHT22;39320;53.214;6.556;2023-02-15T04:41:34;6.00;99.90
51908;DHT22;39320;53.214;6.556;2023-02-15T04:44:00;6.00;99.90
51908;DHT22;39320;53.214;6.556;2023-02-15T04:46:27;6.00;99.90
51908;DHT22;39320;53.214;6.556;2023-02-15T04:48:53;6.00;99.90
51908;DHT22;39320;53.214;6.556;2023-02-15T04:51:19;6.00;99.90
51908;DHT22;39320;53.214;6.556;2023-02-15T04:53:45;6.00;99.90
51908;DHT22;39320;53.214;6.556;2023-02-15T04:56:10;6.00;99.90
51908;DHT22;39320;53.214;6.556;2023-02-15T04:58:36;6.00;99.90
51908;DHT22;39320;53.214;6.556;2023-02-15T05:01:06;6.00;99.90
51908;DHT22;39320;53.214;6.556;2023-02-15T05:03:32;6.00;99.90
51908;DHT22;39320;53.214;6.556;2023-02-15T05:05:58;6.00;99.90
51908;DHT22;39320;53.214;6.556;2023-02-15T05:08:23;6.00;99.90
51908;DHT22;39320;53.214;6.556;2023-02-15T05:10:49;6.10;99.90
51908;DHT22;39320;53.214;6.556;2023-02-15T05:13:15;6.00;99.90
51908;DHT22;39320;53.214;6.556;2023-02-15T05:15:41;6.00;99.90
51908;DHT22;39320;53.214;6.556;2023-02-15T05:18:08;6.00;99.90
51908;DHT22;39320;53.214;6.556;2023-02-15T05:20:34;5.90;99.90
51908;DHT22;39320;53.214;6.556;2023-02-15T05:23:00;5.90;99.90
51908;DHT22;39320;53.214;6.556;2023-02-15T05:25:25;5.80;99.90
51908;DHT22;39320;53.214;6.556;2023-02-15T05:28:10;5.80;99.90
51908;DHT22;39320;53.214;6.556;2023-02-15T05:33:26;5.80;99.90
51908;DHT22;39320;53.214;6.556;2023-02-15T05:35:52;5.70;99.90
51908;DHT22;39320;53.214;6.556;2023-02-15T05:38:17;5.70;99.90
51908;DHT22;39320;53.214;6.556;2023-02-15T05:40:43;5.70;99.90
51908;DHT22;39320;53.214;6.556;2023-02-15T05:43:09;5.70;99.90
51908;DHT22;39320;53.214;6.556;2023-02-15T05:45:35;5.60;99.90
51908;DHT22;39320;53.214;6.556;2023-02-15T05:48:00;5.70;99.90
51908;DHT22;39320;53.214;6.556;2023-02-15T05:50:26;5.60;99.90
51908;DHT22;39320;53.214;6.556;2023-02-15T05:52:52;5.70;99.90
51908;DHT22;39320;53.214;6.556;2023-02-15T05:55:19;5.70;99.90
51908;DHT22;39320;53.214;6.556;2023-02-15T05:57:44;5.60;99.90
51908;DHT22;39320;53.214;6.556;2023-02-15T06:00:12;5.70;99.90
51908;DHT22;39320;53.214;6.556;2023-02-15T06:02:39;5.70;99.90
51908;DHT22;39320;53.214;6.556;2023-02-15T06:05:06;5.60;99.90
51908;DHT22;39320;53.214;6.556;2023-02-15T06:07:32;5.60;99.90
51908;DHT22;39320;53.214;6.556;2023-02-15T06:09:58;5.60;99.90
51908;DHT22;39320;53.214;6.556;2023-02-15T06:12:24;5.60;99.90
51908;DHT22;39320;53.214;6.556;2023-02-15T06:14:49;5.60;99.90
51908;DHT22;39320;53.214;6.556;2023-02-15T06:17:15;5.50;99.90
51908;DHT22;39320;53.214;6.556;2023-02-15T06:19:42;5.60;99.90
51908;DHT22;39320;53.214;6.556;2023-02-15T06:22:08;5.70;99.90
51908;DHT22;39320;53.214;6.556;2023-02-15T06:24:34;5.60;99.90
51908;DHT22;39320;53.214;6.556;2023-02-15T06:27:00;6.10;99.90
51908;DHT22;39320;53.214;6.556;2023-02-15T06:29:25;6.10;99.90
51908;DHT22;39320;53.214;6.556;2023-02-15T06:31:51;5.60;99.90
51908;DHT22;39320;53.214;6.556;2023-02-15T06:34:17;6.10;99.90
51908;DHT22;39320;53.214;6.556;2023-02-15T06:36:43;5.60;99.90
51908;DHT22;39320;53.214;6.556;2023-02-15T06:39:08;6.00;99.90
51908;DHT22;39320;53.214;6.556;2023-02-15T06:41:35;5.80;99.90
51908;DHT22;39320;53.214;6.556;2023-02-15T06:44:01;5.60;99.90
51908;DHT22;39320;53.214;6.556;2023-02-15T06:46:28;5.60;99.90
51908;DHT22;39320;53.214;6.556;2023-02-15T06:48:53;5.50;99.90
51908;DHT22;39320;53.214;6.556;2023-02-15T06:51:20;5.60;99.90
51908;DHT22;39320;53.214;6.556;2023-02-15T06:53:46;5.50;99.90
51908;DHT22;39320;53.214;6.556;2023-02-15T06:56:12;5.50;99.90
51908;DHT22;39320;53.214;6.556;2023-02-15T06:58:40;5.50;99.90
51908;DHT22;39320;53.214;6.556;2023-02-15T07:01:06;5.50;99.90
51908;DHT22;39320;53.214;6.556;2023-02-15T07:03:32;5.90;99.90
51908;DHT22;39320;53.214;6.556;2023-02-15T07:06:00;5.60;99.90
51908;DHT22;39320;53.214;6.556;2023-02-15T07:08:27;5.60;99.90
51908;DHT22;39320;53.214;6.556;2023-02-15T07:10:54;5.60;99.90
51908;DHT22;39320;53.214;6.556;2023-02-15T07:13:40;5.50;99.90
51908;DHT22;39320;53.214;6.556;2023-02-15T07:16:08;5.90;99.90
51908;DHT22;39320;53.214;6.556;2023-02-15T07:18:34;5.50;99.90
51908;DHT22;39320;53.214;6.556;2023-02-15T07:20:59;5.50;99.90
51908;DHT22;39320;53.214;6.556;2023-02-15T07:23:25;5.50;99.90
51908;DHT22;39320;53.214;6.556;2023-02-15T07:26:01;5.50;99.90
51908;DHT22;39320;53.214;6.556;2023-02-15T07:28:27;5.50;99.90
51908;DHT22;39320;53.214;6.556;2023-02-15T07:30:53;5.50;99.90
51908;DHT22;39320;53.214;6.556;2023-02-15T07:33:19;5.60;99.90
51908;DHT22;39320;53.214;6.556;2023-02-15T07:36:04;5.60;99.90
51908;DHT22;39320;53.214;6.556;2023-02-15T07:38:33;5.60;99.90
51908;DHT22;39320;53.214;6.556;2023-02-15T07:41:07;6.10;99.90
51908;DHT22;39320;53.214;6.556;2023-02-15T07:43:36;5.60;99.90
51908;DHT22;39320;53.214;6.556;2023-02-15T07:46:08;5.60;99.90
51908;DHT22;39320;53.214;6.556;2023-02-15T07:48:35;5.60;99.90
51908;DHT22;39320;53.214;6.556;2023-02-15T07:51:02;5.70;99.90
51908;DHT22;39320;53.214;6.556;2023-02-15T07:53:29;5.70;99.90
51908;DHT22;39320;53.214;6.556;2023-02-15T07:55:57;5.70;99.90
51908;DHT22;39320;53.214;6.556;2023-02-15T07:58:23;5.70;99.90
51908;DHT22;39320;53.214;6.556;2023-02-15T08:01:09;5.70;99.90
51908;DHT22;39320;53.214;6.556;2023-02-15T08:03:35;5.70;99.90
51908;DHT22;39320;53.214;6.556;2023-02-15T08:06:00;5.70;99.90
51908;DHT22;39320;53.214;6.556;2023-02-15T08:08:27;5.80;99.90
51908;DHT22;39320;53.214;6.556;2023-02-15T08:13:50;5.90;99.90
51908;DHT22;39320;53.214;6.556;2023-02-15T08:16:40;5.80;99.90
51908;DHT22;39320;53.214;6.556;2023-02-15T08:21:35;5.80;99.90
51908;DHT22;39320;53.214;6.556;2023-02-15T08:24:02;5.90;99.90
51908;DHT22;39320;53.214;6.556;2023-02-15T08:26:29;5.80;99.90
51908;DHT22;39320;53.214;6.556;2023-02-15T08:28:59;5.80;99.90
51908;DHT22;39320;53.214;6.556;2023-02-15T08:31:26;5.90;99.90
51908;DHT22;39320;53.214;6.556;2023-02-15T08:33:53;5.90;99.90
51908;DHT22;39320;53.214;6.556;2023-02-15T08:36:21;5.90;99.90
51908;DHT22;39320;53.214;6.556;2023-02-15T08:38:48;5.90;99.90
51908;DHT22;39320;53.214;6.556;2023-02-15T08:41:17;5.90;99.90
51908;DHT22;39320;53.214;6.556;2023-02-15T08:43:49;5.90;99.90
51908;DHT22;39320;53.214;6.556;2023-02-15T08:46:17;5.90;99.90
51908;DHT22;39320;53.214;6.556;2023-02-15T08:48:43;5.90;99.90
51908;DHT22;39320;53.214;6.556;2023-02-15T08:51:10;6.00;99.90
51908;DHT22;39320;53.214;6.556;2023-02-15T08:53:42;5.90;99.90
51908;DHT22;39320;53.214;6.556;2023-02-15T08:56:08;5.90;99.90
51908;DHT22;39320;53.214;6.556;2023-02-15T08:58:35;6.00;99.90
51908;DHT22;39320;53.214;6.556;2023-02-15T09:01:02;6.00;99.90
51908;DHT22;39320;53.214;6.556;2023-02-15T09:03:33;6.00;99.90
51908;DHT22;39320;53.214;6.556;2023-02-15T09:05:59;6.00;99.90
51908;DHT22;39320;53.214;6.556;2023-02-15T09:08:26;6.00;99.90
51908;DHT22;39320;53.214;6.556;2023-02-15T09:10:53;6.00;99.90
51908;DHT22;39320;53.214;6.556;2023-02-15T09:13:19;6.10;99.90
51908;DHT22;39320;53.214;6.556;2023-02-15T09:15:46;6.10;99.90
51908;DHT22;39320;53.214;6.556;2023-02-15T09:18:12;6.10;99.90
51908;DHT22;39320;53.214;6.556;2023-02-15T09:20:43;6.10;99.90
51908;DHT22;39320;53.214;6.556;2023-02-15T09:23:09;6.10;99.90
51908;DHT22;39320;53.214;6.556;2023-02-15T09:25:35;6.10;99.90
51908;DHT22;39320;53.214;6.556;2023-02-15T09:28:01;6.10;99.90
51908;DHT22;39320;53.214;6.556;2023-02-15T09:30:26;6.30;99.90
51908;DHT22;39320;53.214;6.556;2023-02-15T09:32:52;6.20;99.90
51908;DHT22;39320;53.214;6.556;2023-02-15T09:35:18;6.20;99.90
51908;DHT22;39320;53.214;6.556;2023-02-15T09:37:43;6.20;99.90
51908;DHT22;39320;53.214;6.556;2023-02-15T09:40:13;6.20;99.90
51908;DHT22;39320;53.214;6.556;2023-02-15T09:48:39;6.40;99.90
51908;DHT22;39320;53.214;6.556;2023-02-15T09:56:31;6.50;99.90
51908;DHT22;39320;53.214;6.556;2023-02-15T09:59:40;6.50;99.90
51908;DHT22;39320;53.214;6.556;2023-02-15T10:02:32;6.50;99.90
51908;DHT22;39320;53.214;6.556;2023-02-15T10:05:36;6.60;99.90
51908;DHT22;39320;53.214;6.556;2023-02-15T10:11:14;6.70;99.90
51908;DHT22;39320;53.214;6.556;2023-02-15T10:14:23;6.70;99.90
51908;DHT22;39320;53.214;6.556;2023-02-15T10:28:20;6.90;99.90
51908;DHT22;39320;53.214;6.556;2023-02-15T10:31:17;6.80;99.90
51908;DHT22;39320;53.214;6.556;2023-02-15T10:33:43;7.00;99.90
51908;DHT22;39320;53.214;6.556;2023-02-15T10:36:53;7.00;99.90
51908;DHT22;39320;53.214;6.556;2023-02-15T10:40:01;7.10;99.90
51908;DHT22;39320;53.214;6.556;2023-02-15T10:45:34;7.20;99.90
51908;DHT22;39320;53.214;6.556;2023-02-15T10:50:47;7.30;99.90
51908;DHT22;39320;53.214;6.556;2023-02-15T10:56:12;7.40;99.90
51908;DHT22;39320;53.214;6.556;2023-02-15T10:58:56;7.50;99.90
51908;DHT22;39320;53.214;6.556;2023-02-15T11:04:37;7.60;99.90
51908;DHT22;39320;53.214;6.556;2023-02-15T11:07:25;7.70;99.90
51908;DHT22;39320;53.214;6.556;2023-02-15T11:12:53;7.80;99.90
51908;DHT22;39320;53.214;6.556;2023-02-15T11:15:39;7.90;99.90
51908;DHT22;39320;53.214;6.556;2023-02-15T11:23:54;8.10;99.90
51908;DHT22;39320;53.214;6.556;2023-02-15T11:31:54;8.30;99.90
51908;DHT22;39320;53.214;6.556;2023-02-15T11:34:34;8.30;99.90
51908;DHT22;39320;53.214;6.556;2023-02-15T11:37:06;8.40;99.90
51908;DHT22;39320;53.214;6.556;2023-02-15T11:39:33;8.50;99.90
51908;DHT22;39320;53.214;6.556;2023-02-15T11:42:04;8.60;99.90
51908;DHT22;39320;53.214;6.556;2023-02-15T11:47:26;8.70;99.90
51908;DHT22;39320;53.214;6.556;2023-02-15T11:49:53;8.70;99.90
51908;DHT22;39320;53.214;6.556;2023-02-15T11:52:19;8.80;99.90
51908;DHT22;39320;53.214;6.556;2023-02-15T11:54:51;8.90;99.90
51908;DHT22;39320;53.214;6.556;2023-02-15T11:57:33;8.90;99.90
51908;DHT22;39320;53.214;6.556;2023-02-15T12:00:13;9.00;99.90
51908;DHT22;39320;53.214;6.556;2023-02-15T12:02:44;9.00;99.90
51908;DHT22;39320;53.214;6.556;2023-02-15T12:05:16;9.10;99.90
51908;DHT22;39320;53.214;6.556;2023-02-15T12:08:03;9.30;99.90
51908;DHT22;39320;53.214;6.556;2023-02-15T12:10:40;9.30;99.90
51908;DHT22;39320;53.214;6.556;2023-02-15T12:13:17;9.40;99.90
51908;DHT22;39320;53.214;6.556;2023-02-15T12:15:54;9.60;99.90
51908;DHT22;39320;53.214;6.556;2023-02-15T12:18:34;9.60;99.90
51908;DHT22;39320;53.214;6.556;2023-02-15T12:23:33;9.90;99.90
51908;DHT22;39320;53.214;6.556;2023-02-15T12:25:59;10.00;99.90
51908;DHT22;39320;53.214;6.556;2023-02-15T12:28:41;10.10;99.90
51908;DHT22;39320;53.214;6.556;2023-02-15T12:31:36;10.20;99.90
51908;DHT22;39320;53.214;6.556;2023-02-15T12:34:16;10.30;99.90
51908;DHT22;39320;53.214;6.556;2023-02-15T12:36:49;10.30;99.90
51908;DHT22;39320;53.214;6.556;2023-02-15T12:39:27;10.40;99.90
51908;DHT22;39320;53.214;6.556;2023-02-15T12:46:57;10.50;99.90
51908;DHT22;39320;53.214;6.556;2023-02-15T12:49:24;10.60;99.90
51908;DHT22;39320;53.214;6.556;2023-02-15T12:51:53;10.60;99.90
51908;DHT22;39320;53.214;6.556;2023-02-15T12:56:47;10.80;99.90
51908;DHT22;39320;53.214;6.556;2023-02-15T12:59:14;10.80;99.90
51908;DHT22;39320;53.214;6.556;2023-02-15T13:01:41;10.90;99.90
51908;DHT22;39320;53.214;6.556;2023-02-15T13:04:28;11.00;99.90
51908;DHT22;39320;53.214;6.556;2023-02-15T13:07:00;11.00;99.90
51908;DHT22;39320;53.214;6.556;2023-02-15T13:12:42;11.00;99.90
51908;DHT22;39320;53.214;6.556;2023-02-15T13:14:44;11.00;99.90
51908;DHT22;39320;53.214;6.556;2023-02-15T13:17:12;10.90;99.90
51908;DHT22;39320;53.214;6.556;2023-02-15T13:19:46;10.90;99.90
51908;DHT22;39320;53.214;6.556;2023-02-15T13:22:31;10.90;99.90
51908;DHT22;39320;53.214;6.556;2023-02-15T13:25:03;10.80;99.90
51908;DHT22;39320;53.214;6.556;2023-02-15T13:27:39;10.80;99.90
51908;DHT22;39320;53.214;6.556;2023-02-15T13:30:27;10.70;99.90
51908;DHT22;39320;53.214;6.556;2023-02-15T13:33:02;10.80;99.90
51908;DHT22;39320;53.214;6.556;2023-02-15T13:35:45;10.80;99.90
51908;DHT22;39320;53.214;6.556;2023-02-15T13:41:04;10.70;99.90
51908;DHT22;39320;53.214;6.556;2023-02-15T13:49:10;10.70;99.90
51908;DHT22;39320;53.214;6.556;2023-02-15T13:51:50;10.70;99.90
51908;DHT22;39320;53.214;6.556;2023-02-15T13:57:19;10.60;99.90
51908;DHT22;39320;53.214;6.556;2023-02-15T14:02:52;10.60;99.90
51908;DHT22;39320;53.214;6.556;2023-02-15T14:11:16;10.50;99.90
51908;DHT22;39320;53.214;6.556;2023-02-15T14:14:17;10.50;99.90
51908;DHT22;39320;53.214;6.556;2023-02-15T14:19:37;10.50;99.90
51908;DHT22;39320;53.214;6.556;2023-02-15T14:30:25;10.50;99.90
51908;DHT22;39320;53.214;6.556;2023-02-15T14:32:54;10.50;99.90
51908;DHT22;39320;53.214;6.556;2023-02-15T14:35:24;10.50;99.90
51908;DHT22;39320;53.214;6.556;2023-02-15T14:49:30;10.60;99.90
51908;DHT22;39320;53.214;6.556;2023-02-15T14:52:00;10.50;99.90
51908;DHT22;39320;53.214;6.556;2023-02-15T15:02:11;10.60;99.90
51908;DHT22;39320;53.214;6.556;2023-02-15T15:07:27;10.50;99.90
51908;DHT22;39320;53.214;6.556;2023-02-15T15:10:23;10.50;99.90
51908;DHT22;39320;53.214;6.556;2023-02-15T15:12:52;10.50;99.90
51908;DHT22;39320;53.214;6.556;2023-02-15T15:18:45;10.50;99.90
51908;DHT22;39320;53.214;6.556;2023-02-15T15:38:46;10.40;99.90
51908;DHT22;39320;53.214;6.556;2023-02-15T15:49:47;10.20;99.90
51908;DHT22;39320;53.214;6.556;2023-02-15T15:52:20;10.20;99.90
51908;DHT22;39320;53.214;6.556;2023-02-15T15:54:52;10.20;99.90
51908;DHT22;39320;53.214;6.556;2023-02-15T15:57:28;10.20;99.90
51908;DHT22;39320;53.214;6.556;2023-02-15T15:59:56;10.20;99.90
51908;DHT22;39320;53.214;6.556;2023-02-15T16:02:25;10.10;99.90
51908;DHT22;39320;53.214;6.556;2023-02-15T16:04:51;10.20;99.90
51908;DHT22;39320;53.214;6.556;2023-02-15T16:10:00;10.10;99.90
51908;DHT22;39320;53.214;6.556;2023-02-15T16:12:37;10.10;99.90
51908;DHT22;39320;53.214;6.556;2023-02-15T16:15:24;10.10;99.90
51908;DHT22;39320;53.214;6.556;2023-02-15T16:17:56;10.00;99.90
51908;DHT22;39320;53.214;6.556;2023-02-15T16:20:26;10.00;99.90
51908;DHT22;39320;53.214;6.556;2023-02-15T16:23:10;10.00;99.90
51908;DHT22;39320;53.214;6.556;2023-02-15T16:26:25;9.90;99.90
51908;DHT22;39320;53.214;6.556;2023-02-15T16:28:52;9.90;99.90
51908;DHT22;39320;53.214;6.556;2023-02-15T16:31:19;9.90;99.90
51908;DHT22;39320;53.214;6.556;2023-02-15T16:33:45;9.80;99.90
51908;DHT22;39320;53.214;6.556;2023-02-15T16:36:24;9.80;99.90
51908;DHT22;39320;53.214;6.556;2023-02-15T16:41:24;9.80;99.90
51908;DHT22;39320;53.214;6.556;2023-02-15T16:43:51;9.80;99.90
51908;DHT22;39320;53.214;6.556;2023-02-15T16:46:25;9.80;99.90
51908;DHT22;39320;53.214;6.556;2023-02-15T16:48:53;9.70;99.90
51908;DHT22;39320;53.214;6.556;2023-02-15T16:51:31;9.70;99.90
51908;DHT22;39320;53.214;6.556;2023-02-15T16:54:03;9.70;99.90
51908;DHT22;39320;53.214;6.556;2023-02-15T16:56:31;9.70;99.90
51908;DHT22;39320;53.214;6.556;2023-02-15T16:58:58;9.70;99.90
51908;DHT22;39320;53.214;6.556;2023-02-15T17:01:27;9.60;99.90
51908;DHT22;39320;53.214;6.556;2023-02-15T17:07:17;9.60;99.90
51908;DHT22;39320;53.214;6.556;2023-02-15T17:09:53;9.60;99.90
51908;DHT22;39320;53.214;6.556;2023-02-15T17:12:54;9.60;99.90
51908;DHT22;39320;53.214;6.556;2023-02-15T17:15:39;9.60;99.90
51908;DHT22;39320;53.214;6.556;2023-02-15T17:18:18;9.60;99.90
51908;DHT22;39320;53.214;6.556;2023-02-15T17:20:46;9.50;99.90
51908;DHT22;39320;53.214;6.556;2023-02-15T17:23:30;9.50;99.90
51908;DHT22;39320;53.214;6.556;2023-02-15T17:25:57;9.50;99.90
51908;DHT22;39320;53.214;6.556;2023-02-15T17:28:25;9.50;99.90
51908;DHT22;39320;53.214;6.556;2023-02-15T17:30:52;9.40;99.90
51908;DHT22;39320;53.214;6.556;2023-02-15T17:38:38;9.30;99.90
51908;DHT22;39320;53.214;6.556;2023-02-15T17:41:05;9.30;99.90
51908;DHT22;39320;53.214;6.556;2023-02-15T17:43:31;9.30;99.90
51908;DHT22;39320;53.214;6.556;2023-02-15T17:45:57;9.20;99.90
51908;DHT22;39320;53.214;6.556;2023-02-15T17:48:37;9.20;99.90
51908;DHT22;39320;53.214;6.556;2023-02-15T17:51:05;9.20;99.90
51908;DHT22;39320;53.214;6.556;2023-02-15T17:53:32;9.20;99.90
51908;DHT22;39320;53.214;6.556;2023-02-15T17:55:58;9.10;99.90
51908;DHT22;39320;53.214;6.556;2023-02-15T17:58:24;9.10;99.90
51908;DHT22;39320;53.214;6.556;2023-02-15T18:00:53;9.10;99.90
51908;DHT22;39320;53.214;6.556;2023-02-15T18:03:44;9.10;99.90
51908;DHT22;39320;53.214;6.556;2023-02-15T18:06:29;9.00;99.90
51908;DHT22;39320;53.214;6.556;2023-02-15T18:09:15;9.00;99.90
51908;DHT22;39320;53.214;6.556;2023-02-15T18:12:00;9.00;99.90
51908;DHT22;39320;53.214;6.556;2023-02-15T18:14:26;9.00;99.90
51908;DHT22;39320;53.214;6.556;2023-02-15T18:16:52;8.90;99.90
51908;DHT22;39320;53.214;6.556;2023-02-15T18:19:24;8.90;99.90
51908;DHT22;39320;53.214;6.556;2023-02-15T18:21:50;8.90;99.90
51908;DHT22;39320;53.214;6.556;2023-02-15T18:24:24;8.90;99.90
51908;DHT22;39320;53.214;6.556;2023-02-15T18:26:52;8.90;99.90
51908;DHT22;39320;53.214;6.556;2023-02-15T18:29:18;8.90;99.90
51908;DHT22;39320;53.214;6.556;2023-02-15T18:31:48;8.80;99.90
51908;DHT22;39320;53.214;6.556;2023-02-15T18:34:27;8.80;99.90
51908;DHT22;39320;53.214;6.556;2023-02-15T18:36:54;8.80;99.90
51908;DHT22;39320;53.214;6.556;2023-02-15T18:39:37;8.80;99.90
51908;DHT22;39320;53.214;6.556;2023-02-15T18:42:05;9.00;99.90
51908;DHT22;39320;53.214;6.556;2023-02-15T18:44:31;8.80;99.90
51908;DHT22;39320;53.214;6.556;2023-02-15T18:46:57;8.80;99.90
51908;DHT22;39320;53.214;6.556;2023-02-15T18:49:23;8.80;99.90
51908;DHT22;39320;53.214;6.556;2023-02-15T18:51:49;8.70;99.90
51908;DHT22;39320;53.214;6.556;2023-02-15T18:54:18;8.70;99.90
51908;DHT22;39320;53.214;6.556;2023-02-15T18:56:46;8.60;99.90
51908;DHT22;39320;53.214;6.556;2023-02-15T18:59:15;8.60;99.90
51908;DHT22;39320;53.214;6.556;2023-02-15T19:01:41;8.60;99.90
51908;DHT22;39320;53.214;6.556;2023-02-15T19:04:07;8.60;99.90
51908;DHT22;39320;53.214;6.556;2023-02-15T19:06:33;8.50;99.90
51908;DHT22;39320;53.214;6.556;2023-02-15T19:08:59;8.60;99.90
51908;DHT22;39320;53.214;6.556;2023-02-15T19:11:27;8.50;99.90
51908;DHT22;39320;53.214;6.556;2023-02-15T19:13:52;8.50;99.90
51908;DHT22;39320;53.214;6.556;2023-02-15T19:16:27;8.50;99.90
51908;DHT22;39320;53.214;6.556;2023-02-15T19:18:53;8.50;99.90
51908;DHT22;39320;53.214;6.556;2023-02-15T19:21:19;8.50;99.90
51908;DHT22;39320;53.214;6.556;2023-02-15T19:23:53;8.50;99.90
51908;DHT22;39320;53.214;6.556;2023-02-15T19:26:19;8.50;99.90
51908;DHT22;39320;53.214;6.556;2023-02-15T19:28:45;8.40;99.90
51908;DHT22;39320;53.214;6.556;2023-02-15T19:31:12;8.40;99.90
51908;DHT22;39320;53.214;6.556;2023-02-15T19:33:38;8.40;99.90
51908;DHT22;39320;53.214;6.556;2023-02-15T19:36:05;8.40;99.90
51908;DHT22;39320;53.214;6.556;2023-02-15T19:38:32;8.40;99.90